createdAt,value
2019-02-23T00:01:36.694Z,79.50
2019-02-23T00:04:10.205Z,79.47
2019-02-23T00:06:55.383Z,79.10
2019-02-23T00:09:41.476Z,78.57
2019-02-23T00:12:16.673Z,78.45
2019-02-23T00:14:50.129Z,78.41
2019-02-23T00:17:33.672Z,78.60
2019-02-23T00:20:07.012Z,78.59
2019-02-23T00:22:40.563Z,78.27
2019-02-23T00:25:14.064Z,78.21
2019-02-23T00:27:48.243Z,78.01
2019-02-23T00:30:21.372Z,77.87
2019-02-23T00:32:55.554Z,77.75
2019-02-23T00:35:29.316Z,77.81
2019-02-23T00:38:03.239Z,77.69
2019-02-23T00:40:48.229Z,77.47
2019-02-23T00:43:23.006Z,77.44
2019-02-23T00:45:56.667Z,77.35
2019-02-23T00:48:30.987Z,77.27
2019-02-23T00:51:05.919Z,77.19
2019-02-23T00:53:39.457Z,77.15
2019-02-23T00:56:13.140Z,77.21
2019-02-23T00:58:48.090Z,77.28
2019-02-23T01:01:22.235Z,77.60
2019-02-23T01:04:05.807Z,77.81
2019-02-23T01:06:39.403Z,77.73
2019-02-23T01:09:13.248Z,77.62
2019-02-23T01:11:58.348Z,77.41
2019-02-23T01:14:32.290Z,77.40
2019-02-23T01:17:14.721Z,77.33
2019-02-23T01:19:48.274Z,77.14
2019-02-23T01:22:21.391Z,77.16
2019-02-23T01:24:55.226Z,77.22
2019-02-23T01:27:28.495Z,77.41
2019-02-23T01:30:01.986Z,77.65
2019-02-23T01:32:36.894Z,77.80
2019-02-23T01:35:19.223Z,77.87
2019-02-23T01:37:52.746Z,77.97
2019-02-23T01:40:25.942Z,78.05
2019-02-23T01:42:59.046Z,78.00
2019-02-23T01:45:42.629Z,77.92
2019-02-23T01:48:16.033Z,77.90
2019-02-23T01:50:49.186Z,77.94
2019-02-23T01:53:24.075Z,78.08
2019-02-23T01:56:06.152Z,78.13
2019-02-23T01:58:39.754Z,78.11
2019-02-23T02:01:15.625Z,78.16
2019-02-23T02:03:59.118Z,78.10
2019-02-23T02:06:33.660Z,77.97
2019-02-23T02:09:07.282Z,77.98
2019-02-23T02:11:40.815Z,77.86
2019-02-23T02:14:14.291Z,77.87
2019-02-23T02:16:47.904Z,77.89
2019-02-23T02:19:21.477Z,77.71
2019-02-23T02:21:55.807Z,77.71
2019-02-23T02:24:28.970Z,77.70
2019-02-23T02:27:02.776Z,77.71
2019-02-23T02:29:36.588Z,77.56
2019-02-23T02:32:10.124Z,77.55
2019-02-23T02:34:43.612Z,77.76
2019-02-23T02:37:18.173Z,77.65
2019-02-23T02:40:00.489Z,77.77
2019-02-23T02:42:34.651Z,77.95
2019-02-23T02:45:18.954Z,77.97
2019-02-23T02:47:53.023Z,78.11
2019-02-23T02:50:41.766Z,78.23
2019-02-23T02:53:15.219Z,78.29
2019-02-23T02:55:48.623Z,78.37
2019-02-23T02:58:22.124Z,78.38
2019-02-23T03:00:57.184Z,78.34
2019-02-23T03:03:30.314Z,78.21
2019-02-23T03:06:15.570Z,78.21
2019-02-23T03:08:49.436Z,78.16
2019-02-23T03:11:33.552Z,78.32
2019-02-23T03:14:07.129Z,78.15
2019-02-23T03:16:41.047Z,78.05
2019-02-23T03:19:24.522Z,78.20
2019-02-23T03:21:58.841Z,78.30
2019-02-23T03:24:32.031Z,78.70
2019-02-23T03:27:05.534Z,78.73
2019-02-23T03:29:39.418Z,78.65
2019-02-23T03:32:12.924Z,78.74
2019-02-23T03:34:46.615Z,78.47
2019-02-23T03:37:21.200Z,78.09
2019-02-23T03:39:54.985Z,77.85
2019-02-23T03:42:29.183Z,77.87
2019-02-23T03:45:02.936Z,78.08
2019-02-23T03:47:45.618Z,78.28
2019-02-23T03:50:19.162Z,78.52
2019-02-23T03:52:52.883Z,78.48
2019-02-23T03:55:26.635Z,78.31
2019-02-23T03:58:15.585Z,78.39
2019-02-23T04:00:57.944Z,78.77
2019-02-23T04:03:31.538Z,78.98
2019-02-23T04:06:04.992Z,78.89
2019-02-23T04:08:38.402Z,78.83
2019-02-23T04:11:11.933Z,79.06
2019-02-23T04:13:45.456Z,79.41
2019-02-23T04:16:18.943Z,79.39
2019-02-23T04:18:52.773Z,79.26
2019-02-23T04:21:26.434Z,79.28
2019-02-23T04:24:00.211Z,79.53
2019-02-23T04:26:34.018Z,79.67
2019-02-23T04:29:07.531Z,79.77
2019-02-23T04:31:40.975Z,79.80
2019-02-23T04:34:14.514Z,79.78
2019-02-23T04:36:48.068Z,79.77
2019-02-23T04:39:21.886Z,79.86
2019-02-23T04:41:55.476Z,79.92
2019-02-23T04:44:29.987Z,80.08
2019-02-23T04:47:03.886Z,80.33
2019-02-23T04:49:37.424Z,80.31
2019-02-23T04:52:10.864Z,80.18
2019-02-23T04:54:44.318Z,79.96
2019-02-23T04:57:26.566Z,79.88
2019-02-23T05:00:00.388Z,79.86
2019-02-23T05:02:42.886Z,79.81
2019-02-23T05:05:16.289Z,79.82
2019-02-23T05:07:50.165Z,79.92
2019-02-23T05:10:23.963Z,79.84
2019-02-23T05:13:06.575Z,79.81
2019-02-23T05:15:40.543Z,79.97
2019-02-23T05:18:24.574Z,79.87
2019-02-23T05:20:58.231Z,80.03
2019-02-23T05:23:31.693Z,80.01
2019-02-23T05:26:04.922Z,80.06
2019-02-23T05:28:38.300Z,80.19
2019-02-23T05:31:11.810Z,80.19
2019-02-23T05:33:45.948Z,80.16
2019-02-23T05:36:19.561Z,80.08
2019-02-23T05:38:52.938Z,80.17
2019-02-23T05:41:26.403Z,80.09
2019-02-23T05:43:59.845Z,80.05
2019-02-23T05:46:33.925Z,80.09
2019-02-23T05:49:07.611Z,80.18
2019-02-23T05:51:41.337Z,80.30
2019-02-23T05:54:15.376Z,80.39
2019-02-23T05:56:58.181Z,80.36
2019-02-23T05:59:43.107Z,80.21
2019-02-23T06:02:16.225Z,79.92
2019-02-23T06:04:49.801Z,79.69
2019-02-23T06:07:23.293Z,79.80
2019-02-23T06:09:57.387Z,80.02
2019-02-23T06:12:30.554Z,80.18
2019-02-23T06:15:04.233Z,79.94
2019-02-23T06:17:38.621Z,79.71
2019-02-23T06:20:21.161Z,79.71
2019-02-23T06:22:55.448Z,79.59
2019-02-23T06:25:37.580Z,79.71
2019-02-23T06:28:13.999Z,79.71
2019-02-23T06:30:48.079Z,79.70
2019-02-23T06:33:31.902Z,79.76
2019-02-23T06:36:06.197Z,79.68
2019-02-23T06:38:54.668Z,79.69
2019-02-23T06:41:38.190Z,79.57
2019-02-23T06:44:12.720Z,79.72
2019-02-23T06:46:46.853Z,79.64
2019-02-23T06:49:20.435Z,79.60
2019-02-23T06:52:04.099Z,79.57
2019-02-23T06:54:29.404Z,79.62
2019-02-23T06:57:03.133Z,79.67
2019-02-23T06:59:37.686Z,79.72
2019-02-23T07:02:11.125Z,79.78
2019-02-23T07:04:45.168Z,79.87
2019-02-23T07:07:18.673Z,79.72
2019-02-23T07:09:52.398Z,79.64
2019-02-23T07:12:25.994Z,79.56
2019-02-23T07:14:59.100Z,79.45
2019-02-23T07:17:33.085Z,79.56
2019-02-23T07:20:06.489Z,79.54
2019-02-23T07:22:39.737Z,79.34
2019-02-23T07:25:13.175Z,79.21
2019-02-23T07:27:55.071Z,78.97
2019-02-23T07:30:28.329Z,78.94
2019-02-23T07:33:01.722Z,78.87
2019-02-23T07:35:35.011Z,78.64
2019-02-23T07:38:17.126Z,78.48
2019-02-23T07:40:50.548Z,78.39
2019-02-23T07:43:35.322Z,78.33
2019-02-23T07:46:18.613Z,78.15
2019-02-23T07:48:57.147Z,77.88
2019-02-23T07:51:30.317Z,77.60
2019-02-23T07:54:12.370Z,77.12
2019-02-23T07:56:45.947Z,76.92
2019-02-23T07:59:19.390Z,76.92
2019-02-23T08:01:52.236Z,77.05
2019-02-23T08:04:27.076Z,76.92
2019-02-23T08:07:02.191Z,76.78
2019-02-23T08:09:36.107Z,76.42
2019-02-23T08:12:08.777Z,76.01
2019-02-23T08:14:42.498Z,76.00
2019-02-23T08:17:26.878Z,75.87
2019-02-23T08:20:00.297Z,75.65
2019-02-23T08:22:37.290Z,74.97
2019-02-23T08:25:09.272Z,74.73
2019-02-23T08:27:43.094Z,74.50
2019-02-23T08:30:25.710Z,73.84
2019-02-23T08:32:59.631Z,73.58
2019-02-23T08:35:42.105Z,73.92
2019-02-23T08:38:16.391Z,73.66
2019-02-23T08:40:58.938Z,73.05
2019-02-23T08:43:44.347Z,72.76
2019-02-23T08:46:26.518Z,72.75
2019-02-23T08:49:00.701Z,72.46
2019-02-23T08:51:46.053Z,72.43
2019-02-23T08:54:19.296Z,72.18
2019-02-23T08:56:55.441Z,72.06
2019-02-23T08:59:38.188Z,71.59
2019-02-23T09:02:20.884Z,71.52
2019-02-23T09:05:03.541Z,71.41
2019-02-23T09:07:37.817Z,70.92
2019-02-23T09:10:19.752Z,70.53
2019-02-23T09:12:53.849Z,70.37
2019-02-23T09:15:36.517Z,69.63
2019-02-23T09:18:10.163Z,69.51
2019-02-23T09:20:44.767Z,69.50
2019-02-23T09:23:19.099Z,68.86
2019-02-23T09:26:02.313Z,68.87
2019-02-23T09:28:45.175Z,69.41
2019-02-23T09:31:27.673Z,69.19
2019-02-23T09:33:59.425Z,69.17
2019-02-23T09:36:32.709Z,68.35
2019-02-23T09:39:08.127Z,67.57
2019-02-23T09:41:40.749Z,67.31
2019-02-23T09:44:23.050Z,67.30
2019-02-23T09:46:57.615Z,67.26
2019-02-23T09:49:30.942Z,67.26
2019-02-23T09:52:13.107Z,67.33
2019-02-23T09:54:46.720Z,67.05
2019-02-23T09:57:20.434Z,67.45
2019-02-23T09:59:54.418Z,66.98
2019-02-23T10:02:26.332Z,66.16
2019-02-23T10:05:08.446Z,65.67
2019-02-23T10:07:42.058Z,64.82
2019-02-23T10:10:15.586Z,65.04
2019-02-23T10:12:48.237Z,64.89
2019-02-23T10:15:30.878Z,64.58
2019-02-23T10:18:04.622Z,63.88
2019-02-23T10:20:47.832Z,62.86
2019-02-23T10:23:32.634Z,63.00
2019-02-23T10:26:06.380Z,62.46
2019-02-23T10:28:50.213Z,61.70
2019-02-23T10:31:24.389Z,61.24
2019-02-23T10:33:57.864Z,61.17
2019-02-23T10:36:41.999Z,59.56
2019-02-23T10:39:24.179Z,58.70
2019-02-23T10:41:57.703Z,59.08
2019-02-23T10:44:29.853Z,59.22
2019-02-23T10:47:03.575Z,58.78
2019-02-23T10:49:37.373Z,57.79
2019-02-23T10:52:20.454Z,57.80
2019-02-23T10:55:03.571Z,56.72
2019-02-23T10:57:45.891Z,57.29
2019-02-23T11:00:21.172Z,58.16
2019-02-23T11:03:04.007Z,57.91
2019-02-23T11:05:37.020Z,58.20
2019-02-23T11:08:10.356Z,57.74
2019-02-23T11:10:44.074Z,56.73
2019-02-23T11:13:17.389Z,56.81
2019-02-23T11:15:50.701Z,57.89
2019-02-23T11:18:33.784Z,56.84
2019-02-23T11:21:06.913Z,55.88
2019-02-23T11:23:50.687Z,54.63
2019-02-23T11:26:23.237Z,55.11
2019-02-23T11:29:06.040Z,54.97
2019-02-23T11:31:48.654Z,55.83
2019-02-23T11:34:35.628Z,54.42
2019-02-23T11:37:24.145Z,54.99
2019-02-23T11:39:58.276Z,54.97
2019-02-23T11:42:40.782Z,55.25
2019-02-23T11:45:13.704Z,53.88
2019-02-23T11:47:48.088Z,53.52
2019-02-23T11:50:31.493Z,52.87
2019-02-23T11:53:04.824Z,52.99
2019-02-23T11:55:47.748Z,52.94
2019-02-23T11:58:22.178Z,51.55
2019-02-23T12:00:55.593Z,52.21
2019-02-23T12:03:29.441Z,52.12
2019-02-23T12:06:04.187Z,51.56
2019-02-23T12:08:37.673Z,50.63
2019-02-23T12:11:10.163Z,50.92
2019-02-23T12:13:44.587Z,50.50
2019-02-23T12:16:18.250Z,50.93
2019-02-23T12:19:03.481Z,49.71
2019-02-23T12:21:36.364Z,50.76
2019-02-23T12:24:09.956Z,49.61
2019-02-23T12:26:43.705Z,48.21
2019-02-23T12:29:27.221Z,48.65
2019-02-23T12:32:01.097Z,48.55
2019-02-23T12:34:34.882Z,49.56
2019-02-23T12:37:08.840Z,49.96
2019-02-23T12:39:42.688Z,49.62
2019-02-23T12:42:27.461Z,49.10
2019-02-23T12:45:10.049Z,48.86
2019-02-23T12:47:53.028Z,48.64
2019-02-23T12:50:25.998Z,49.83
2019-02-23T12:53:09.256Z,49.15
2019-02-23T12:55:51.723Z,49.09
2019-02-23T12:58:26.451Z,48.16
2019-02-23T13:00:59.715Z,48.95
2019-02-23T13:03:42.475Z,48.09
2019-02-23T13:06:31.209Z,47.47
2019-02-23T13:09:14.735Z,47.73
2019-02-23T13:12:03.720Z,45.73
2019-02-23T13:15:12.477Z,46.91
2019-02-23T13:18:02.863Z,47.20
2019-02-23T13:21:12.964Z,44.74
2019-02-23T13:24:28.689Z,42.68
2019-02-23T13:27:08.785Z,44.07
2019-02-23T13:30:31.410Z,43.74
2019-02-23T13:34:03.999Z,44.29
2019-02-23T13:37:12.522Z,43.80
2019-02-23T13:40:19.681Z,43.81
2019-02-23T13:43:28.704Z,44.11
2019-02-23T13:46:26.617Z,43.46
2019-02-23T13:49:41.436Z,43.36
2019-02-23T13:52:41.706Z,43.70
2019-02-23T13:55:51.239Z,42.47
2019-02-23T13:58:56.417Z,41.71
2019-02-23T14:02:22.672Z,41.43
2019-02-23T14:05:28.051Z,41.52
2019-02-23T14:08:30.000Z,41.86
2019-02-23T14:11:38.575Z,41.05
2019-02-23T14:14:47.950Z,41.19
2019-02-23T14:18:02.178Z,42.23
2019-02-23T14:21:22.512Z,41.11
2019-02-23T14:24:50.073Z,41.74
2019-02-23T14:28:16.500Z,41.13
2019-02-23T14:31:32.021Z,40.88
2019-02-23T14:34:33.839Z,39.95
2019-02-23T14:37:29.734Z,41.16
2019-02-23T14:40:53.904Z,40.51
2019-02-23T14:44:06.480Z,40.53
2019-02-23T14:47:22.240Z,39.91
2019-02-23T14:50:24.224Z,38.88
2019-02-23T14:53:43.920Z,39.22
2019-02-23T14:56:59.277Z,39.83
2019-02-23T15:00:13.515Z,39.99
2019-02-23T15:03:26.557Z,39.34
2019-02-23T15:06:25.518Z,40.72
2019-02-23T15:09:54.412Z,40.87
2019-02-23T15:12:56.193Z,39.69
2019-02-23T15:16:22.586Z,41.12
2019-02-23T15:19:37.405Z,40.47
2019-02-23T15:23:00.065Z,40.07
2019-02-23T15:26:08.601Z,40.03
2019-02-23T15:29:17.977Z,39.38
2019-02-23T15:32:26.781Z,39.62
2019-02-23T15:35:57.612Z,40.66
2019-02-23T15:39:14.240Z,40.18
2019-02-23T15:42:11.472Z,40.39
2019-02-23T15:45:21.318Z,40.61
2019-02-23T15:48:43.465Z,41.52
2019-02-23T15:54:33.915Z,39.86
2019-02-23T15:57:17.448Z,40.29
2019-02-23T15:59:50.598Z,40.26
2019-02-23T16:02:23.507Z,41.24
2019-02-23T16:05:11.913Z,41.35
2019-02-23T16:07:45.248Z,41.27
2019-02-23T16:10:19.006Z,41.99
2019-02-23T16:12:52.692Z,42.53
2019-02-23T16:15:25.958Z,43.79
2019-02-23T16:18:00.086Z,43.33
2019-02-23T16:20:42.652Z,44.90
2019-02-23T16:23:15.811Z,45.13
2019-02-23T16:25:51.294Z,43.81
2019-02-23T16:28:24.420Z,44.94
2019-02-23T16:30:57.918Z,44.94
2019-02-23T16:33:31.066Z,45.61
2019-02-23T16:36:13.398Z,45.80
2019-02-23T16:38:46.851Z,46.22
2019-02-23T16:41:20.751Z,46.11
2019-02-23T16:43:53.721Z,47.24
2019-02-23T16:46:27.394Z,47.35
2019-02-23T16:49:00.609Z,46.85
2019-02-23T16:51:33.618Z,47.19
2019-02-23T16:54:06.900Z,47.72
2019-02-23T16:56:40.705Z,48.28
2019-02-23T16:59:13.608Z,48.27
2019-02-23T17:01:47.463Z,48.28
2019-02-23T17:04:21.021Z,48.55
2019-02-23T17:06:56.641Z,48.36
2019-02-23T17:09:39.901Z,50.16
2019-02-23T17:12:22.895Z,50.36
2019-02-23T17:15:05.422Z,50.39
2019-02-23T17:17:39.179Z,50.76
2019-02-23T17:20:11.798Z,51.24
2019-02-23T17:22:44.788Z,51.76
2019-02-23T17:25:17.749Z,51.83
2019-02-23T17:27:50.467Z,52.33
2019-02-23T17:30:23.676Z,52.71
2019-02-23T17:32:57.393Z,52.82
2019-02-23T17:35:30.549Z,52.84
2019-02-23T17:38:15.658Z,53.42
2019-02-23T17:40:41.489Z,54.08
2019-02-23T17:43:14.998Z,54.98
2019-02-23T17:45:48.570Z,55.01
2019-02-23T17:48:23.336Z,55.26
2019-02-23T17:50:56.863Z,55.65
2019-02-23T17:53:30.362Z,55.62
2019-02-23T17:56:03.507Z,55.93
2019-02-23T17:58:48.664Z,55.60
2019-02-23T18:01:22.272Z,56.14
2019-02-23T18:03:56.107Z,56.54
2019-02-23T18:06:30.946Z,56.23
2019-02-23T18:09:05.462Z,56.49
2019-02-23T18:11:49.845Z,56.59
2019-02-23T18:14:32.504Z,56.77
2019-02-23T18:17:07.903Z,56.91
2019-02-23T18:19:50.044Z,56.62
2019-02-23T18:22:23.719Z,56.93
2019-02-23T18:24:57.585Z,57.06
2019-02-23T18:27:40.224Z,57.05
2019-02-23T18:30:14.258Z,57.02
2019-02-23T18:33:03.625Z,57.67
2019-02-23T18:35:36.924Z,57.40
2019-02-23T18:38:10.822Z,58.07
2019-02-23T18:40:59.842Z,57.64
2019-02-23T18:43:33.699Z,58.24
2019-02-23T18:46:07.356Z,58.62
2019-02-23T18:48:40.579Z,58.44
2019-02-23T18:51:13.715Z,58.93
2019-02-23T18:53:47.408Z,59.04
2019-02-23T18:56:20.553Z,59.36
2019-02-23T18:59:05.620Z,59.58
2019-02-23T19:01:39.473Z,59.29
2019-02-23T19:04:13.858Z,59.80
2019-02-23T19:06:48.174Z,59.68
2019-02-23T19:09:21.293Z,59.98
2019-02-23T19:12:04.831Z,60.58
2019-02-23T19:14:38.435Z,60.22
2019-02-23T19:17:12.750Z,60.26
2019-02-23T19:19:48.144Z,60.43
2019-02-23T19:22:30.598Z,60.75
2019-02-23T19:25:05.848Z,61.28
2019-02-23T19:27:39.096Z,61.07
2019-02-23T19:30:12.977Z,60.55
2019-02-23T19:32:46.772Z,60.08
2019-02-23T19:35:30.115Z,60.58
2019-02-23T19:38:04.012Z,60.36
2019-02-23T19:40:48.444Z,60.62
2019-02-23T19:43:31.147Z,61.15
2019-02-23T19:46:04.854Z,61.35
2019-02-23T19:48:47.897Z,61.20
2019-02-23T19:51:37.039Z,61.24
2019-02-23T19:54:19.240Z,62.27
2019-02-23T19:56:52.791Z,61.93
2019-02-23T19:59:26.952Z,61.96
2019-02-23T20:02:09.555Z,62.47
2019-02-23T20:04:42.875Z,63.16
2019-02-23T20:07:16.109Z,63.00
2019-02-23T20:09:49.768Z,63.32
2019-02-23T20:12:24.350Z,63.19
2019-02-23T20:15:06.759Z,63.40
2019-02-23T20:17:40.190Z,63.13
2019-02-23T20:20:13.718Z,62.87
2019-02-23T20:22:47.589Z,63.28
2019-02-23T20:25:21.714Z,62.77
2019-02-23T20:28:07.008Z,63.41
2019-02-23T20:30:49.538Z,63.27
2019-02-23T20:33:23.314Z,63.01
2019-02-23T20:36:08.801Z,62.52
2019-02-23T20:38:52.394Z,62.98
2019-02-23T20:41:30.905Z,62.88
2019-02-23T20:44:04.410Z,63.40
2019-02-23T20:46:37.931Z,63.91
2019-02-23T20:49:11.706Z,64.53
2019-02-23T20:51:45.780Z,64.15
2019-02-23T20:54:20.035Z,64.63
2019-02-23T20:56:54.516Z,65.06
2019-02-23T20:59:29.386Z,65.32
2019-02-23T21:02:04.861Z,65.80
2019-02-23T21:04:39.484Z,65.69
2019-02-23T21:07:16.133Z,65.67
2019-02-23T21:09:50.265Z,65.97
2019-02-23T21:12:25.085Z,66.08
2019-02-23T21:15:00.538Z,66.22
2019-02-23T21:17:34.499Z,66.38
2019-02-23T21:20:08.134Z,66.71
2019-02-23T21:22:42.730Z,66.63
2019-02-23T21:25:16.419Z,66.36
2019-02-23T21:27:51.826Z,66.68
2019-02-23T21:30:25.766Z,67.40
2019-02-23T21:33:00.129Z,67.02
2019-02-23T21:35:35.393Z,66.46
2019-02-23T21:38:09.589Z,66.98
2019-02-23T21:40:44.238Z,67.28
2019-02-23T21:43:18.239Z,67.26
2019-02-23T21:45:53.092Z,67.76
2019-02-23T21:48:26.774Z,68.04
2019-02-23T21:51:01.350Z,68.50
2019-02-23T21:53:36.258Z,68.24
2019-02-23T21:56:18.996Z,68.21
2019-02-23T21:59:04.356Z,68.49
2019-02-23T22:01:38.413Z,68.49
2019-02-23T22:04:11.635Z,68.64
2019-02-23T22:06:45.533Z,69.06
2019-02-23T22:09:20.030Z,68.75
2019-02-23T22:11:53.506Z,68.73
2019-02-23T22:14:27.236Z,69.01
2019-02-23T22:17:00.718Z,69.22
2019-02-23T22:19:33.963Z,69.28
2019-02-23T22:22:16.721Z,69.17
2019-02-23T22:24:59.258Z,69.17
2019-02-23T22:27:32.998Z,69.19
2019-02-23T22:30:07.231Z,69.07
2019-02-23T22:32:40.398Z,69.30
2019-02-23T22:35:13.848Z,69.45
2019-02-23T22:38:02.468Z,69.51
2019-02-23T22:40:36.430Z,69.66
2019-02-23T22:43:18.824Z,69.64
2019-02-23T22:45:52.851Z,69.87
2019-02-23T22:48:41.975Z,70.36
2019-02-23T22:51:24.177Z,70.36
2019-02-23T22:53:57.337Z,70.08
2019-02-23T22:56:31.459Z,70.14
2019-02-23T22:59:05.494Z,70.40
2019-02-23T23:01:47.526Z,70.52
2019-02-23T23:04:21.076Z,70.71
2019-02-23T23:06:54.796Z,70.65
2019-02-23T23:09:28.302Z,70.72
2019-02-23T23:12:01.735Z,70.76
2019-02-23T23:14:35.261Z,70.54
2019-02-23T23:17:08.680Z,70.54
2019-02-23T23:19:41.857Z,70.45
2019-02-23T23:22:24.346Z,70.53
2019-02-23T23:24:57.807Z,70.48
2019-02-23T23:27:31.738Z,70.73
2019-02-23T23:30:14.572Z,71.07
2019-02-23T23:32:57.287Z,71.25
2019-02-23T23:35:31.485Z,71.06
2019-02-23T23:38:05.089Z,71.25
2019-02-23T23:40:38.975Z,71.29
2019-02-23T23:43:12.699Z,71.18
2019-02-23T23:45:48.241Z,71.06
2019-02-23T23:48:21.599Z,71.14
2019-02-23T23:50:55.710Z,71.24
2019-02-23T23:53:38.293Z,71.38
2019-02-23T23:56:12.776Z,71.45
2019-02-23T23:58:45.942Z,71.48
